sensor_id;sensor_type;location;lat;lon;timestamp;P1;durP1;ratioP1;P2;durP2;ratioP2
21833;SDS011;11079;51.092;3.458;2023-11-21T09:29:33;3.08;;;1.00;;
21833;SDS011;11079;51.092;3.458;2023-11-21T09:32:55;3.17;;;1.63;;
21833;SDS011;11079;51.092;3.458;2023-11-21T09:35:30;4.55;;;1.60;;
21833;SDS011;11079;51.092;3.458;2023-11-21T09:37:56;6.07;;;1.10;;
21833;SDS011;11079;51.092;3.458;2023-11-21T09:40:29;4.43;;;1.38;;
21833;SDS011;11079;51.092;3.458;2023-11-21T09:45:50;5.43;;;1.58;;
21833;SDS011;11079;51.092;3.458;2023-11-21T10:16:44;7.60;;;3.13;;
21833;SDS011;11079;51.092;3.458;2023-11-21T10:19:13;7.78;;;2.97;;
21833;SDS011;11079;51.092;3.458;2023-11-21T10:21:41;7.30;;;3.45;;
21833;SDS011;11079;51.092;3.458;2023-11-21T10:24:14;7.18;;;2.67;;
21833;SDS011;11079;51.092;3.458;2023-11-21T10:27:07;7.47;;;3.15;;
21833;SDS011;11079;51.092;3.458;2023-11-21T10:29:33;6.40;;;2.80;;
21833;SDS011;11079;51.092;3.458;2023-11-21T10:32:01;8.45;;;2.58;;
21833;SDS011;11079;51.092;3.458;2023-11-21T10:34:28;13.18;;;3.55;;
21833;SDS011;11079;51.092;3.458;2023-11-21T10:36:54;6.82;;;3.40;;
21833;SDS011;11079;51.092;3.458;2023-11-21T10:42:42;4.75;;;2.83;;
21833;SDS011;11079;51.092;3.458;2023-11-21T10:45:28;4.63;;;2.38;;
21833;SDS011;11079;51.092;3.458;2023-11-21T10:47:56;5.95;;;2.53;;
21833;SDS011;11079;51.092;3.458;2023-11-21T10:53:44;5.45;;;2.65;;
21833;SDS011;11079;51.092;3.458;2023-11-21T10:56:10;6.57;;;2.42;;
21833;SDS011;11079;51.092;3.458;2023-11-21T10:58:42;8.32;;;2.88;;
21833;SDS011;11079;51.092;3.458;2023-11-21T11:03:37;8.32;;;2.20;;
21833;SDS011;11079;51.092;3.458;2023-11-21T11:06:04;10.60;;;2.50;;
21833;SDS011;11079;51.092;3.458;2023-11-21T11:08:32;7.20;;;2.33;;
21833;SDS011;11079;51.092;3.458;2023-11-21T11:11:00;15.15;;;3.40;;
21833;SDS011;11079;51.092;3.458;2023-11-21T11:13:25;8.73;;;2.85;;
21833;SDS011;11079;51.092;3.458;2023-11-21T11:15:52;9.85;;;3.35;;
21833;SDS011;11079;51.092;3.458;2023-11-21T11:18:32;7.57;;;2.90;;
21833;SDS011;11079;51.092;3.458;2023-11-21T11:21:05;7.88;;;2.35;;
21833;SDS011;11079;51.092;3.458;2023-11-21T11:26:37;10.77;;;2.47;;
21833;SDS011;11079;51.092;3.458;2023-11-21T11:34:20;8.35;;;2.03;;
21833;SDS011;11079;51.092;3.458;2023-11-21T11:36:56;7.80;;;2.35;;
21833;SDS011;11079;51.092;3.458;2023-11-21T11:39:40;5.32;;;1.63;;
21833;SDS011;11079;51.092;3.458;2023-11-21T11:42:08;4.53;;;1.65;;
21833;SDS011;11079;51.092;3.458;2023-11-21T11:47:29;8.15;;;1.60;;
21833;SDS011;11079;51.092;3.458;2023-11-21T11:50:09;6.05;;;1.35;;
21833;SDS011;11079;51.092;3.458;2023-11-21T11:52:45;4.63;;;1.20;;
21833;SDS011;11079;51.092;3.458;2023-11-21T11:55:12;4.53;;;1.50;;
21833;SDS011;11079;51.092;3.458;2023-11-21T11:57:39;5.43;;;1.20;;
21833;SDS011;11079;51.092;3.458;2023-11-21T12:00:13;4.93;;;1.25;;
21833;SDS011;11079;51.092;3.458;2023-11-21T12:03:07;4.78;;;1.50;;
21833;SDS011;11079;51.092;3.458;2023-11-21T12:05:36;7.72;;;1.63;;
21833;SDS011;11079;51.092;3.458;2023-11-21T12:08:14;5.50;;;1.70;;
21833;SDS011;11079;51.092;3.458;2023-11-21T12:10:41;4.53;;;1.30;;
21833;SDS011;11079;51.092;3.458;2023-11-21T12:13:09;3.55;;;1.13;;
21833;SDS011;11079;51.092;3.458;2023-11-21T12:15:38;5.20;;;1.10;;
21833;SDS011;11079;51.092;3.458;2023-11-21T12:18:06;2.22;;;1.00;;
21833;SDS011;11079;51.092;3.458;2023-11-21T12:20:35;7.20;;;1.50;;
21833;SDS011;11079;51.092;3.458;2023-11-21T12:23:14;3.90;;;1.20;;
21833;SDS011;11079;51.092;3.458;2023-11-21T12:26:08;6.28;;;1.42;;
21833;SDS011;11079;51.092;3.458;2023-11-21T12:28:51;5.43;;;1.30;;
21833;SDS011;11079;51.092;3.458;2023-11-21T12:31:23;3.80;;;1.52;;
21833;SDS011;11079;51.092;3.458;2023-11-21T12:34:14;3.58;;;1.50;;
21833;SDS011;11079;51.092;3.458;2023-11-21T12:37:24;4.45;;;1.60;;
21833;SDS011;11079;51.092;3.458;2023-11-21T12:39:57;6.05;;;1.80;;
21833;SDS011;11079;51.092;3.458;2023-11-21T12:42:54;7.32;;;2.15;;
21833;SDS011;11079;51.092;3.458;2023-11-21T12:45:29;8.13;;;2.58;;
21833;SDS011;11079;51.092;3.458;2023-11-21T12:48:07;6.55;;;1.48;;
21833;SDS011;11079;51.092;3.458;2023-11-21T12:50:55;4.85;;;1.55;;
21833;SDS011;11079;51.092;3.458;2023-11-21T12:53:39;4.28;;;1.35;;
21833;SDS011;11079;51.092;3.458;2023-11-21T13:00:04;4.07;;;1.17;;
21833;SDS011;11079;51.092;3.458;2023-11-21T13:23:41;2.08;;;0.90;;
21833;SDS011;11079;51.092;3.458;2023-11-21T13:26:07;2.88;;;1.13;;
21833;SDS011;11079;51.092;3.458;2023-11-21T13:28:39;1.98;;;0.70;;
21833;SDS011;11079;51.092;3.458;2023-11-21T13:31:07;4.70;;;1.33;;
21833;SDS011;11079;51.092;3.458;2023-11-21T13:33:45;2.08;;;1.08;;
21833;SDS011;11079;51.092;3.458;2023-11-21T13:45:11;5.15;;;1.02;;
21833;SDS011;11079;51.092;3.458;2023-11-21T13:50:37;0.80;;;0.70;;
21833;SDS011;11079;51.092;3.458;2023-11-21T13:53:23;5.43;;;1.10;;
21833;SDS011;11079;51.092;3.458;2023-11-21T13:56:05;3.00;;;0.90;;
21833;SDS011;11079;51.092;3.458;2023-11-21T13:58:54;3.15;;;0.95;;
21833;SDS011;11079;51.092;3.458;2023-11-21T14:01:31;3.88;;;0.80;;
21833;SDS011;11079;51.092;3.458;2023-11-21T14:04:00;2.90;;;0.82;;
21833;SDS011;11079;51.092;3.458;2023-11-21T14:06:53;1.75;;;0.80;;
21833;SDS011;11079;51.092;3.458;2023-11-21T14:09:27;2.03;;;1.00;;
21833;SDS011;11079;51.092;3.458;2023-11-21T14:12:24;1.65;;;0.80;;
21833;SDS011;11079;51.092;3.458;2023-11-21T14:15:00;2.58;;;0.70;;
21833;SDS011;11079;51.092;3.458;2023-11-21T14:17:51;1.85;;;0.73;;
21833;SDS011;11079;51.092;3.458;2023-11-21T14:20:19;1.83;;;0.75;;
21833;SDS011;11079;51.092;3.458;2023-11-21T14:23:03;1.40;;;0.90;;
21833;SDS011;11079;51.092;3.458;2023-11-21T14:25:34;4.35;;;1.00;;
21833;SDS011;11079;51.092;3.458;2023-11-21T14:28:30;1.98;;;0.80;;
21833;SDS011;11079;51.092;3.458;2023-11-21T14:31:03;2.33;;;0.80;;
21833;SDS011;11079;51.092;3.458;2023-11-21T14:33:31;4.95;;;1.02;;
21833;SDS011;11079;51.092;3.458;2023-11-21T14:36:27;1.10;;;0.65;;
21833;SDS011;11079;51.092;3.458;2023-11-21T14:45:24;2.90;;;0.93;;
21833;SDS011;11079;51.092;3.458;2023-11-21T14:48:10;4.85;;;1.10;;
21833;SDS011;11079;51.092;3.458;2023-11-21T14:50:51;1.90;;;0.75;;
21833;SDS011;11079;51.092;3.458;2023-11-21T14:53:48;1.00;;;0.60;;
21833;SDS011;11079;51.092;3.458;2023-11-21T14:56:34;2.30;;;1.00;;
21833;SDS011;11079;51.092;3.458;2023-11-21T14:59:02;3.13;;;1.00;;
21833;SDS011;11079;51.092;3.458;2023-11-21T15:01:35;2.58;;;0.82;;
21833;SDS011;11079;51.092;3.458;2023-11-21T15:04:20;3.47;;;0.75;;
21833;SDS011;11079;51.092;3.458;2023-11-21T15:06:59;3.63;;;0.85;;
21833;SDS011;11079;51.092;3.458;2023-11-21T15:09:27;2.25;;;0.95;;
21833;SDS011;11079;51.092;3.458;2023-11-21T15:11:59;3.95;;;1.08;;
21833;SDS011;11079;51.092;3.458;2023-11-21T15:14:50;3.85;;;1.35;;
21833;SDS011;11079;51.092;3.458;2023-11-21T15:17:22;1.85;;;1.13;;
21833;SDS011;11079;51.092;3.458;2023-11-21T15:19:52;1.92;;;1.08;;
21833;SDS011;11079;51.092;3.458;2023-11-21T15:22:19;4.78;;;1.35;;
21833;SDS011;11079;51.092;3.458;2023-11-21T15:24:45;10.05;;;1.65;;
21833;SDS011;11079;51.092;3.458;2023-11-21T15:27:20;8.23;;;1.58;;
21833;SDS011;11079;51.092;3.458;2023-11-21T15:30:06;1.92;;;1.33;;
21833;SDS011;11079;51.092;3.458;2023-11-21T15:32:32;4.38;;;2.20;;
21833;SDS011;11079;51.092;3.458;2023-11-21T15:34:58;5.75;;;2.22;;
21833;SDS011;11079;51.092;3.458;2023-11-21T15:37:25;2.78;;;1.58;;
21833;SDS011;11079;51.092;3.458;2023-11-21T15:39:55;3.67;;;1.70;;
21833;SDS011;11079;51.092;3.458;2023-11-21T15:42:22;4.18;;;1.73;;
21833;SDS011;11079;51.092;3.458;2023-11-21T15:44:48;4.40;;;2.00;;
21833;SDS011;11079;51.092;3.458;2023-11-21T15:47:15;4.35;;;1.77;;
21833;SDS011;11079;51.092;3.458;2023-11-21T15:49:43;6.03;;;2.10;;
21833;SDS011;11079;51.092;3.458;2023-11-21T15:52:10;4.63;;;2.08;;
21833;SDS011;11079;51.092;3.458;2023-11-21T15:54:36;5.18;;;2.40;;
21833;SDS011;11079;51.092;3.458;2023-11-21T15:57:03;5.55;;;2.13;;
21833;SDS011;11079;51.092;3.458;2023-11-21T15:59:31;4.10;;;2.22;;
21833;SDS011;11079;51.092;3.458;2023-11-21T16:01:59;7.90;;;2.58;;
21833;SDS011;11079;51.092;3.458;2023-11-21T16:04:25;4.70;;;2.05;;
21833;SDS011;11079;51.092;3.458;2023-11-21T16:06:53;7.03;;;2.75;;
21833;SDS011;11079;51.092;3.458;2023-11-21T16:09:19;5.88;;;2.28;;
21833;SDS011;11079;51.092;3.458;2023-11-21T16:11:55;9.10;;;2.50;;
21833;SDS011;11079;51.092;3.458;2023-11-21T16:14:41;6.82;;;2.80;;
21833;SDS011;11079;51.092;3.458;2023-11-21T16:17:12;8.45;;;2.78;;
21833;SDS011;11079;51.092;3.458;2023-11-21T16:19:43;6.38;;;2.25;;
21833;SDS011;11079;51.092;3.458;2023-11-21T16:22:11;5.15;;;2.50;;
21833;SDS011;11079;51.092;3.458;2023-11-21T16:27:55;6.80;;;2.47;;
21833;SDS011;11079;51.092;3.458;2023-11-21T16:30:23;5.28;;;2.67;;
21833;SDS011;11079;51.092;3.458;2023-11-21T16:33:15;5.47;;;3.30;;
21833;SDS011;11079;51.092;3.458;2023-11-21T16:36:24;8.20;;;3.50;;
21833;SDS011;11079;51.092;3.458;2023-11-21T16:39:03;9.30;;;5.30;;
21833;SDS011;11079;51.092;3.458;2023-11-21T16:41:54;8.00;;;4.30;;
21833;SDS011;11079;51.092;3.458;2023-11-21T16:44:54;9.10;;;3.67;;
21833;SDS011;11079;51.092;3.458;2023-11-21T16:57:40;8.05;;;3.58;;
21833;SDS011;11079;51.092;3.458;2023-11-21T17:00:21;5.80;;;3.65;;
21833;SDS011;11079;51.092;3.458;2023-11-21T17:02:47;6.03;;;3.53;;
21833;SDS011;11079;51.092;3.458;2023-11-21T17:05:29;8.35;;;4.05;;
21833;SDS011;11079;51.092;3.458;2023-11-21T17:07:56;6.80;;;4.15;;
21833;SDS011;11079;51.092;3.458;2023-11-21T17:10:25;8.65;;;4.22;;
21833;SDS011;11079;51.092;3.458;2023-11-21T17:12:51;9.13;;;5.40;;
21833;SDS011;11079;51.092;3.458;2023-11-21T17:15:17;9.52;;;5.32;;
21833;SDS011;11079;51.092;3.458;2023-11-21T17:17:44;10.75;;;5.28;;
21833;SDS011;11079;51.092;3.458;2023-11-21T17:20:10;10.75;;;5.40;;
21833;SDS011;11079;51.092;3.458;2023-11-21T17:22:36;12.05;;;5.18;;
21833;SDS011;11079;51.092;3.458;2023-11-21T17:25:07;10.68;;;5.80;;
21833;SDS011;11079;51.092;3.458;2023-11-21T17:27:42;10.10;;;6.00;;
21833;SDS011;11079;51.092;3.458;2023-11-21T17:30:21;9.65;;;5.60;;
21833;SDS011;11079;51.092;3.458;2023-11-21T17:33:33;9.35;;;6.22;;
21833;SDS011;11079;51.092;3.458;2023-11-21T22:18:08;23.48;;;13.35;;
21833;SDS011;11079;51.092;3.458;2023-11-21T22:32:21;23.00;;;14.23;;
21833;SDS011;11079;51.092;3.458;2023-11-21T22:35:27;22.77;;;14.35;;
21833;SDS011;11079;51.092;3.458;2023-11-21T22:41:35;24.73;;;14.38;;
21833;SDS011;11079;51.092;3.458;2023-11-21T22:44:00;22.67;;;13.98;;
21833;SDS011;11079;51.092;3.458;2023-11-21T22:46:26;22.38;;;13.55;;
21833;SDS011;11079;51.092;3.458;2023-11-21T22:48:54;22.15;;;13.27;;
21833;SDS011;11079;51.092;3.458;2023-11-21T22:51:23;26.27;;;14.65;;
21833;SDS011;11079;51.092;3.458;2023-11-21T22:53:52;25.52;;;14.50;;
21833;SDS011;11079;51.092;3.458;2023-11-21T22:56:18;28.20;;;15.18;;
21833;SDS011;11079;51.092;3.458;2023-11-21T22:58:46;26.48;;;14.85;;
21833;SDS011;11079;51.092;3.458;2023-11-21T23:01:12;25.42;;;14.32;;
21833;SDS011;11079;51.092;3.458;2023-11-21T23:03:39;27.20;;;16.02;;
21833;SDS011;11079;51.092;3.458;2023-11-21T23:06:08;27.88;;;14.48;;
21833;SDS011;11079;51.092;3.458;2023-11-21T23:08:37;25.25;;;14.52;;
21833;SDS011;11079;51.092;3.458;2023-11-21T23:11:04;28.05;;;15.63;;
21833;SDS011;11079;51.092;3.458;2023-11-21T23:13:30;24.92;;;15.43;;
21833;SDS011;11079;51.092;3.458;2023-11-21T23:15:56;24.45;;;13.95;;
21833;SDS011;11079;51.092;3.458;2023-11-21T23:18:22;24.83;;;14.35;;
21833;SDS011;11079;51.092;3.458;2023-11-21T23:20:53;27.38;;;14.98;;
21833;SDS011;11079;51.092;3.458;2023-11-21T23:23:24;25.25;;;14.68;;
21833;SDS011;11079;51.092;3.458;2023-11-21T23:25:52;27.17;;;14.73;;
21833;SDS011;11079;51.092;3.458;2023-11-21T23:28:22;26.83;;;14.38;;
21833;SDS011;11079;51.092;3.458;2023-11-21T23:30:48;26.92;;;13.70;;
21833;SDS011;11079;51.092;3.458;2023-11-21T23:33:15;28.90;;;15.93;;
21833;SDS011;11079;51.092;3.458;2023-11-21T23:35:41;25.58;;;14.75;;
21833;SDS011;11079;51.092;3.458;2023-11-21T23:38:07;29.55;;;15.35;;
21833;SDS011;11079;51.092;3.458;2023-11-21T23:40:33;25.40;;;14.45;;
21833;SDS011;11079;51.092;3.458;2023-11-21T23:43:01;27.63;;;15.27;;
21833;SDS011;11079;51.092;3.458;2023-11-21T23:45:27;25.02;;;14.20;;
21833;SDS011;11079;51.092;3.458;2023-11-21T23:47:53;32.22;;;15.35;;
21833;SDS011;11079;51.092;3.458;2023-11-21T23:50:19;27.65;;;15.57;;
21833;SDS011;11079;51.092;3.458;2023-11-21T23:52:49;27.75;;;16.42;;
21833;SDS011;11079;51.092;3.458;2023-11-21T23:55:16;26.17;;;14.13;;
21833;SDS011;11079;51.092;3.458;2023-11-21T23:57:48;29.17;;;15.63;;
